Time;durP1;ratioP1;P1;durP2;ratioP2;P2;SDS_P1;SDS_P2;PMS_P1;PMS_P2;Temp;Humidity;BMP_temperature;BMP_pressure;BME280_temperature;BME280_humidity;BME280_pressure;Samples;Min_cycle;Max_cycle;Signal;HPM_P1;HPM_P2
2022/04/21 00:02:24;;;;;;;6.80;4.68;;;9.10;99.90;;;;;;5023906;28;20037;-72
2022/04/21 00:04:49;;;;;;;13.00;5.20;;;9.00;99.90;;;;;;5027200;28;20072;-72
2022/04/21 00:07:15;;;;;;;6.35;5.18;;;9.00;99.90;;;;;;5055522;28;20045;-72
2022/04/21 00:09:40;;;;;;;6.95;5.13;;;9.00;99.90;;;;;;5028010;28;20128;-72
2022/04/21 00:12:06;;;;;;;7.13;5.40;;;8.90;99.90;;;;;;5028713;28;20065;-72
2022/04/21 00:14:32;;;;;;;8.40;5.30;;;8.90;99.90;;;;;;5028902;28;20132;-72
2022/04/21 00:16:58;;;;;;;8.15;5.50;;;8.90;99.90;;;;;;5027575;28;20120;-72
2022/04/21 00:19:24;;;;;;;7.35;5.25;;;8.80;99.90;;;;;;5011361;28;20115;-72
2022/04/21 00:24:36;;;;;;;7.75;5.47;;;8.80;99.90;;;;;;5028075;28;20060;-72
2022/04/21 00:27:02;;;;;;;8.00;5.45;;;8.70;99.90;;;;;;5021040;28;20121;-72
2022/04/21 00:29:28;;;;;;;6.30;5.30;;;8.70;99.90;;;;;;5022827;28;20131;-72
2022/04/21 00:31:54;;;;;;;7.72;5.47;;;8.70;99.90;;;;;;5056304;28;20041;-72
2022/04/21 00:34:19;;;;;;;7.40;5.78;;;8.70;99.90;;;;;;5030486;28;20080;-72
2022/04/21 00:36:45;;;;;;;8.35;5.53;;;8.70;99.90;;;;;;5027908;28;20042;-72
2022/04/21 00:39:11;;;;;;;7.03;5.45;;;8.60;99.90;;;;;;5054739;28;20121;-72
2022/04/21 00:41:41;;;;;;;9.13;5.57;;;8.60;99.90;;;;;;5028217;28;20132;-72
2022/04/21 00:44:07;;;;;;;8.68;5.05;;;8.60;99.90;;;;;;5029110;28;20041;-72
2022/04/21 00:46:37;;;;;;;7.15;5.32;;;8.60;99.90;;;;;;5033855;28;20056;-72
2022/04/21 00:49:04;;;;;;;8.52;5.93;;;8.50;99.90;;;;;;5028514;28;20041;-72
2022/04/21 00:51:31;;;;;;;7.03;5.22;;;8.50;99.90;;;;;;5030649;28;20037;-72
2022/04/21 00:53:58;;;;;;;8.85;5.82;;;8.40;99.90;;;;;;5024361;28;20038;-72
2022/04/21 00:56:24;;;;;;;8.95;5.40;;;8.40;99.90;;;;;;5018822;28;20098;-72
2022/04/21 00:58:50;;;;;;;9.65;5.72;;;8.40;99.90;;;;;;5028683;28;20045;-72
2022/04/21 01:04:00;;;;;;;12.27;6.20;;;8.30;99.90;;;;;;5024984;28;20061;-72
2022/04/21 01:06:26;;;;;;;8.18;5.70;;;8.30;99.90;;;;;;5028898;28;20042;-70
2022/04/21 01:08:51;;;;;;;6.68;5.13;;;8.30;99.90;;;;;;5028217;28;20060;-71
2022/04/21 01:11:18;;;;;;;7.63;5.88;;;8.30;99.90;;;;;;5054131;28;20069;-71
2022/04/21 01:13:44;;;;;;;7.30;5.90;;;8.20;99.90;;;;;;5024116;28;20084;-71
2022/04/21 01:16:10;;;;;;;5.57;4.97;;;8.30;99.90;;;;;;5031625;28;20037;-71
2022/04/21 01:18:36;;;;;;;7.53;5.78;;;8.20;99.90;;;;;;5030273;28;20029;-71
2022/04/21 01:21:01;;;;;;;11.00;6.45;;;8.20;99.90;;;;;;5038108;28;20042;-71
2022/04/21 01:23:27;;;;;;;8.73;5.90;;;8.20;99.90;;;;;;5031394;28;20075;-71
2022/04/21 01:25:54;;;;;;;13.18;6.20;;;8.20;99.90;;;;;;5033599;28;20121;-71
2022/04/21 01:28:20;;;;;;;8.18;5.75;;;8.20;99.90;;;;;;5031714;28;20061;-71
2022/04/21 01:30:46;;;;;;;11.45;5.82;;;8.10;99.90;;;;;;5031306;28;20056;-72
2022/04/21 01:33:11;;;;;;;8.45;6.40;;;8.10;99.90;;;;;;5026863;28;20046;-72
2022/04/21 01:35:38;;;;;;;7.57;5.78;;;8.10;99.90;;;;;;5062438;28;20037;-72
2022/04/21 01:43:32;;;;;;;10.35;6.53;;;8.00;99.90;;;;;;5031289;28;20037;-72
2022/04/21 01:45:58;;;;;;;7.97;6.20;;;8.00;99.90;;;;;;5030657;28;20042;-72
2022/04/21 01:48:24;;;;;;;10.30;6.47;;;7.90;99.90;;;;;;5031075;28;20053;-72
2022/04/21 01:50:49;;;;;;;8.73;6.93;;;7.90;99.90;;;;;;5021312;28;20136;-72
2022/04/21 01:53:15;;;;;;;8.57;6.55;;;7.80;99.90;;;;;;5025780;28;20140;-72
2022/04/21 01:55:41;;;;;;;7.78;6.40;;;7.80;99.90;;;;;;5023883;28;20077;-72
2022/04/21 01:58:07;;;;;;;8.20;6.30;;;7.80;99.90;;;;;;5063678;28;20041;-72
2022/04/21 02:00:33;;;;;;;10.70;6.28;;;7.70;99.90;;;;;;5052655;28;20048;-72
2022/04/21 02:02:59;;;;;;;7.90;6.50;;;7.70;99.90;;;;;;5025443;28;20419;-72
2022/04/21 02:05:24;;;;;;;9.40;6.65;;;7.70;99.90;;;;;;5012946;28;20042;-72
2022/04/21 02:07:50;;;;;;;10.70;6.90;;;7.60;99.90;;;;;;5016121;28;20056;-72
2022/04/21 02:10:17;;;;;;;12.82;7.13;;;7.50;99.90;;;;;;5028466;28;20128;-72
2022/04/21 02:12:45;;;;;;;11.23;7.47;;;7.50;99.90;;;;;;5056083;28;20049;-72
2022/04/21 02:15:11;;;;;;;9.45;7.20;;;7.20;99.90;;;;;;5030896;28;20136;-72
2022/04/21 02:17:39;;;;;;;10.05;6.78;;;7.20;99.90;;;;;;5028867;28;20037;-72
2022/04/21 02:20:06;;;;;;;11.00;6.85;;;7.20;99.90;;;;;;5025399;28;20562;-72
2022/04/21 02:22:32;;;;;;;9.35;6.75;;;7.20;99.90;;;;;;5028471;28;20030;-72
2022/04/21 02:24:58;;;;;;;7.80;6.63;;;7.20;99.90;;;;;;5020951;28;20076;-72
2022/04/21 02:27:24;;;;;;;9.55;7.30;;;7.10;99.90;;;;;;5028737;28;20088;-72
2022/04/21 02:29:52;;;;;;;9.88;7.20;;;7.20;99.90;;;;;;5027995;28;20148;-72
2022/04/21 02:32:17;;;;;;;14.18;8.23;;;7.20;99.90;;;;;;5020406;28;20041;-72
2022/04/21 02:34:43;;;;;;;11.65;8.32;;;7.10;99.90;;;;;;5027431;28;20408;-72
2022/04/21 02:37:09;;;;;;;10.43;7.55;;;7.10;99.90;;;;;;5022451;28;20041;-72
2022/04/21 02:39:34;;;;;;;8.95;6.53;;;7.00;99.90;;;;;;5030180;28;20078;-72
2022/04/21 02:42:01;;;;;;;11.18;7.57;;;7.00;99.90;;;;;;5029063;28;20044;-72
2022/04/21 02:44:27;;;;;;;10.20;8.10;;;7.10;99.90;;;;;;5030195;28;20048;-72
2022/04/21 02:46:52;;;;;;;9.23;7.40;;;7.10;99.90;;;;;;5048639;28;20128;-72
2022/04/21 02:49:19;;;;;;;11.25;7.57;;;7.10;99.90;;;;;;5013234;28;20037;-72
2022/04/21 02:51:45;;;;;;;9.70;8.00;;;7.10;99.90;;;;;;5030193;28;20048;-71
2022/04/21 02:59:41;;;;;;;10.43;8.50;;;7.00;99.90;;;;;;5026199;28;20049;-72
2022/04/21 03:02:06;;;;;;;12.98;7.82;;;7.00;99.90;;;;;;5027440;28;20060;-71
2022/04/21 03:04:32;;;;;;;11.27;8.82;;;7.00;99.90;;;;;;5030356;28;20077;-72
2022/04/21 03:06:57;;;;;;;10.57;8.00;;;7.00;99.90;;;;;;5030153;28;20060;-72
2022/04/21 03:09:23;;;;;;;9.85;7.88;;;7.00;99.90;;;;;;5030187;28;20026;-72
2022/04/21 03:11:49;;;;;;;9.98;7.97;;;7.00;99.90;;;;;;5029392;28;20136;-72
2022/04/21 03:14:15;;;;;;;8.77;7.40;;;7.00;99.90;;;;;;5029941;28;20043;-72
2022/04/21 03:16:41;;;;;;;10.25;7.82;;;7.00;99.90;;;;;;5025663;28;20037;-72
2022/04/21 03:19:07;;;;;;;11.38;8.65;;;7.00;99.90;;;;;;5029353;28;20037;-72
2022/04/21 03:24:20;;;;;;;9.88;7.57;;;7.10;99.90;;;;;;5057583;28;20049;-72
2022/04/21 03:26:46;;;;;;;12.00;8.75;;;7.10;99.90;;;;;;5029119;28;20046;-72
2022/04/21 03:29:12;;;;;;;14.60;9.20;;;7.10;99.90;;;;;;5026639;28;20100;-72
2022/04/21 03:31:37;;;;;;;11.68;8.68;;;7.10;99.90;;;;;;5017806;28;20046;-72
2022/04/21 03:34:05;;;;;;;10.25;8.32;;;7.10;99.90;;;;;;5027979;28;20709;-72
2022/04/21 03:36:32;;;;;;;10.93;8.90;;;7.00;99.90;;;;;;5028585;28;20091;-72
2022/04/21 03:38:58;;;;;;;10.98;8.73;;;7.00;99.90;;;;;;5027483;28;20091;-72
2022/04/21 03:41:23;;;;;;;12.98;8.90;;;7.00;99.90;;;;;;5022794;28;20466;-72
2022/04/21 03:43:49;;;;;;;10.07;8.40;;;7.00;99.90;;;;;;5029574;28;20044;-72
2022/04/21 03:46:15;;;;;;;12.15;8.82;;;7.00;99.90;;;;;;5023139;28;20104;-72
2022/04/21 03:48:40;;;;;;;13.80;9.07;;;7.00;99.90;;;;;;5023802;28;20099;-72
2022/04/21 03:51:06;;;;;;;12.13;8.65;;;7.00;99.90;;;;;;5029169;28;20045;-72
2022/04/21 03:53:31;;;;;;;15.43;9.73;;;7.00;99.90;;;;;;5029495;28;20052;-71
2022/04/21 03:55:57;;;;;;;13.65;9.10;;;6.90;99.90;;;;;;5027720;28;20168;-72
2022/04/21 03:58:23;;;;;;;10.32;8.30;;;6.90;99.90;;;;;;5028178;28;20096;-72
2022/04/21 04:00:48;;;;;;;11.90;8.88;;;6.90;99.90;;;;;;5029295;28;20052;-72
2022/04/21 04:03:14;;;;;;;11.77;8.77;;;6.90;99.90;;;;;;5010678;28;20113;-72
2022/04/21 04:05:40;;;;;;;13.38;9.35;;;6.80;99.90;;;;;;5022082;28;20104;-72
2022/04/21 04:10:53;;;;;;;9.15;8.20;;;6.80;99.90;;;;;;5030546;28;20084;-72
2022/04/21 04:13:19;;;;;;;12.30;8.88;;;6.80;99.90;;;;;;5033348;28;20112;-72
2022/04/21 04:15:48;;;;;;;13.48;8.48;;;6.80;99.90;;;;;;5029707;28;20037;-72
2022/04/21 04:18:18;;;;;;;10.35;8.82;;;6.70;99.90;;;;;;5032259;28;20037;-72
2022/04/21 04:20:43;;;;;;;11.25;8.27;;;6.70;99.90;;;;;;5026112;28;20038;-71
2022/04/21 04:23:09;;;;;;;11.00;8.93;;;6.70;99.90;;;;;;5030584;28;20111;-72
2022/04/21 04:25:35;;;;;;;13.10;9.43;;;6.70;99.90;;;;;;5029128;28;20041;-72
2022/04/21 04:28:03;;;;;;;13.25;8.55;;;6.70;99.90;;;;;;5034221;28;20037;-72
2022/04/21 04:30:29;;;;;;;10.70;8.70;;;6.70;99.90;;;;;;5032946;28;20047;-72
2022/04/21 04:32:55;;;;;;;11.63;9.15;;;6.70;99.90;;;;;;5034188;28;20411;-72
2022/04/21 04:35:21;;;;;;;11.32;9.02;;;6.70;99.90;;;;;;5010170;28;20120;-72
2022/04/21 04:37:47;;;;;;;12.73;8.73;;;6.70;99.90;;;;;;5014929;28;20123;-71
2022/04/21 04:40:13;;;;;;;11.95;8.95;;;6.70;99.90;;;;;;5027392;28;20484;-72
2022/04/21 04:42:39;;;;;;;13.18;9.38;;;6.70;99.90;;;;;;5032822;28;20045;-72
2022/04/21 04:47:49;;;;;;;13.43;9.82;;;6.60;99.90;;;;;;5031879;28;20419;-71
2022/04/21 04:50:15;;;;;;;11.02;9.30;;;6.70;99.90;;;;;;5012743;28;20048;-72
2022/04/21 04:52:40;;;;;;;10.57;8.32;;;6.70;99.90;;;;;;5032376;28;20042;-72
2022/04/21 04:55:10;;;;;;;13.40;9.63;;;6.70;99.90;;;;;;5028164;28;20070;-72
2022/04/21 04:57:36;;;;;;;10.93;9.13;;;6.60;99.90;;;;;;5046775;28;20049;-72
2022/04/21 05:00:03;;;;;;;17.73;10.02;;;6.70;99.90;;;;;;5026923;28;20049;-72
2022/04/21 05:02:29;;;;;;;13.25;9.45;;;6.70;99.90;;;;;;5028899;28;20055;-72
2022/04/21 05:04:54;;;;;;;14.88;10.25;;;6.70;99.90;;;;;;5032477;28;20442;-72
2022/04/21 05:07:20;;;;;;;11.82;9.63;;;6.70;99.90;;;;;;5031674;28;20036;-72
2022/04/21 05:09:46;;;;;;;14.32;9.35;;;6.70;99.90;;;;;;5029711;28;20033;-72
2022/04/21 05:12:15;;;;;;;12.38;9.35;;;6.70;99.90;;;;;;5030965;28;20045;-72
2022/04/21 05:14:40;;;;;;;15.45;10.55;;;6.80;99.90;;;;;;5031775;28;20514;-72
2022/04/21 05:17:06;;;;;;;11.60;9.02;;;6.80;99.90;;;;;;5031530;28;20053;-72
2022/04/21 05:19:32;;;;;;;12.98;9.43;;;6.80;99.90;;;;;;5031792;28;20044;-71
2022/04/21 05:22:03;;;;;;;13.00;9.70;;;6.90;99.90;;;;;;5030865;28;20041;-71
2022/04/21 05:24:30;;;;;;;11.95;9.75;;;6.90;99.90;;;;;;5028850;28;20103;-71
2022/04/21 05:26:56;;;;;;;11.15;9.38;;;6.90;99.90;;;;;;5030920;28;20531;-71
2022/04/21 05:32:07;;;;;;;12.07;9.82;;;7.00;99.90;;;;;;5031608;28;20491;-71
2022/04/21 05:34:33;;;;;;;16.15;9.43;;;7.00;99.90;;;;;;5029253;28;20551;-71
2022/04/21 05:37:00;;;;;;;14.05;9.65;;;7.00;99.90;;;;;;5029092;28;20139;-71
2022/04/21 05:39:27;;;;;;;15.57;9.40;;;7.10;99.90;;;;;;5026423;28;20438;-71
2022/04/21 05:41:53;;;;;;;13.93;9.52;;;7.20;99.90;;;;;;5030904;28;20384;-71
2022/04/21 05:44:20;;;;;;;11.73;9.85;;;7.20;99.90;;;;;;5029145;28;20411;-71
2022/04/21 05:46:46;;;;;;;13.43;10.13;;;7.20;99.90;;;;;;5059049;28;20136;-71
2022/04/21 05:49:12;;;;;;;13.25;9.27;;;7.20;99.90;;;;;;5030137;28;20404;-71
2022/04/21 05:51:38;;;;;;;14.80;10.05;;;7.20;99.90;;;;;;5026496;28;20479;-71
2022/04/21 05:54:06;;;;;;;11.15;9.07;;;7.30;99.90;;;;;;5011453;28;20041;-72
2022/04/21 05:56:32;;;;;;;16.55;9.60;;;7.30;99.90;;;;;;5019907;28;20088;-72
2022/04/21 05:58:58;;;;;;;11.45;8.98;;;7.40;99.90;;;;;;5025521;28;20136;-71
2022/04/21 06:01:24;;;;;;;11.95;9.15;;;7.40;99.90;;;;;;5027405;28;20046;-72
2022/04/21 06:03:51;;;;;;;14.75;9.85;;;7.50;99.90;;;;;;5028389;28;20091;-71
2022/04/21 06:06:17;;;;;;;11.48;8.85;;;7.50;99.90;;;;;;5027029;28;20106;-71
2022/04/21 06:08:42;;;;;;;11.95;9.00;;;7.60;99.90;;;;;;5029479;28;20080;-71
2022/04/21 06:11:08;;;;;;;12.57;8.93;;;7.70;99.90;;;;;;5031696;28;20480;-71
2022/04/21 06:13:34;;;;;;;13.80;8.43;;;7.70;99.90;;;;;;5008250;28;20057;-71
2022/04/21 06:16:00;;;;;;;11.50;8.70;;;7.70;99.90;;;;;;5023000;28;20079;-71
2022/04/21 06:18:26;;;;;;;12.20;8.80;;;7.80;99.90;;;;;;5023737;28;20037;-71
2022/04/21 06:20:55;;;;;;;10.07;8.38;;;7.90;99.90;;;;;;5027762;28;20124;-71
2022/04/21 06:23:21;;;;;;;11.98;8.43;;;7.90;99.90;;;;;;5011366;28;20030;-71
2022/04/21 06:25:47;;;;;;;11.63;8.77;;;8.00;99.90;;;;;;5024892;28;20045;-71
2022/04/21 06:28:13;;;;;;;11.25;8.40;;;8.00;99.90;;;;;;5028559;28;20033;-71
2022/04/21 06:30:39;;;;;;;9.93;7.15;;;8.10;99.90;;;;;;5026338;28;20137;-71
2022/04/21 06:33:06;;;;;;;8.98;7.80;;;8.10;99.90;;;;;;5019654;28;20463;-71
2022/04/21 06:35:32;;;;;;;10.07;7.47;;;8.20;99.90;;;;;;5026859;28;20037;-71
2022/04/21 06:37:58;;;;;;;9.60;7.20;;;8.30;99.90;;;;;;5035975;28;20048;-71
2022/04/21 06:40:24;;;;;;;7.63;6.80;;;8.40;99.90;;;;;;5028470;28;20041;-71
2022/04/21 06:42:50;;;;;;;9.68;6.97;;;8.40;99.90;;;;;;5026356;28;20393;-71
2022/04/21 06:48:03;;;;;;;9.07;6.90;;;8.60;99.90;;;;;;5025482;28;20049;-72
2022/04/21 06:50:34;;;;;;;10.93;6.57;;;8.80;99.90;;;;;;5028343;28;20037;-72
2022/04/21 06:53:05;;;;;;;8.70;5.95;;;8.90;99.90;;;;;;5022929;28;20041;-72
2022/04/21 06:55:30;;;;;;;10.05;5.78;;;9.00;99.90;;;;;;5027337;28;20052;-72
2022/04/21 06:57:56;;;;;;;6.78;5.55;;;9.10;99.90;;;;;;5044508;28;20057;-72
2022/04/21 07:00:25;;;;;;;7.88;5.57;;;9.30;99.90;;;;;;5027478;28;20037;-72
2022/04/21 07:02:57;;;;;;;7.03;5.20;;;9.40;99.90;;;;;;5019054;28;20037;-72
2022/04/21 07:05:27;;;;;;;9.15;4.40;;;9.60;99.90;;;;;;5029444;28;20077;-72
2022/04/21 07:07:53;;;;;;;8.55;5.30;;;9.70;99.90;;;;;;5029131;28;20041;-72
2022/04/21 07:10:20;;;;;;;7.15;4.63;;;9.80;99.90;;;;;;5025292;28;20128;-72
2022/04/21 07:12:46;;;;;;;9.05;4.30;;;10.00;99.90;;;;;;5028241;28;20069;-72
2022/04/21 07:15:12;;;;;;;5.38;4.18;;;10.10;99.90;;;;;;5027602;28;20045;-72
2022/04/21 07:17:39;;;;;;;5.85;3.95;;;10.30;99.90;;;;;;5028977;28;20037;-72
2022/04/21 07:20:08;;;;;;;3.90;3.50;;;10.40;99.90;;;;;;5029083;28;20045;-72
2022/04/21 07:22:34;;;;;;;3.50;3.10;;;10.60;99.90;;;;;;5029147;28;20052;-72
2022/04/21 07:25:03;;;;;;;5.53;3.42;;;10.70;99.90;;;;;;5026864;28;20041;-72
2022/04/21 07:27:31;;;;;;;5.40;3.40;;;10.80;99.90;;;;;;5023706;28;20040;-72
2022/04/21 07:29:57;;;;;;;5.13;3.75;;;11.00;99.90;;;;;;5021952;28;20399;-72
2022/04/21 07:32:23;;;;;;;6.50;3.65;;;11.10;99.90;;;;;;5021735;28;20084;-72
2022/04/21 07:34:49;;;;;;;5.18;3.15;;;11.30;99.90;;;;;;5032968;28;20049;-72
2022/04/21 07:37:14;;;;;;;8.63;3.28;;;11.40;99.90;;;;;;5012557;28;20041;-72
2022/04/21 07:39:40;;;;;;;6.80;2.70;;;11.60;99.90;;;;;;5027458;28;20449;-71
2022/04/21 07:42:08;;;;;;;4.22;2.63;;;11.70;99.90;;;;;;5027902;28;20042;-71
2022/04/21 07:44:36;;;;;;;4.45;2.40;;;11.90;97.70;;;;;;5025339;28;20037;-72
2022/04/21 07:47:03;;;;;;;3.85;2.58;;;12.00;96.50;;;;;;5033097;28;20399;-71
2022/04/21 07:49:47;;;;;;;5.43;2.42;;;12.10;94.60;;;;;;5031636;28;20083;-71
2022/04/21 07:55:17;;;;;;;3.08;2.40;;;12.30;93.60;;;;;;5029909;28;20068;-72
2022/04/21 07:57:44;;;;;;;5.45;2.63;;;12.50;92.60;;;;;;5059979;28;20041;-72
2022/04/21 08:00:12;;;;;;;3.45;2.72;;;12.70;92.40;;;;;;5022960;28;20045;-72
2022/04/21 08:02:43;;;;;;;3.08;2.47;;;12.80;93.30;;;;;;5057315;28;20064;-73
2022/04/21 08:05:10;;;;;;;4.38;2.58;;;12.90;90.90;;;;;;5024585;28;20069;-72
2022/04/21 08:07:37;;;;;;;7.22;2.55;;;13.00;88.80;;;;;;5006447;28;20503;-73
2022/04/21 08:10:08;;;;;;;3.50;2.45;;;13.10;91.90;;;;;;5006733;28;20037;-74
2022/04/21 08:12:44;;;;;;;4.82;2.53;;;13.30;90.50;;;;;;5030342;28;20037;-73
2022/04/21 08:15:12;;;;;;;2.78;2.10;;;13.40;87.00;;;;;;5060997;28;20099;-73
2022/04/21 08:17:39;;;;;;;3.35;2.38;;;13.60;81.60;;;;;;5030902;28;20377;-73
2022/04/21 08:20:07;;;;;;;4.07;2.38;;;13.60;81.70;;;;;;5028791;28;20029;-73
2022/04/21 08:22:33;;;;;;;4.57;2.40;;;13.80;79.60;;;;;;5030384;28;20041;-74
2022/04/21 08:33:11;;;;;;;6.18;2.42;;;14.10;73.50;;;;;;5030046;28;20068;-73
2022/04/21 08:35:37;;;;;;;3.58;2.40;;;14.20;74.10;;;;;;5008737;28;20034;-73
2022/04/21 08:38:03;;;;;;;2.83;2.55;;;14.40;73.20;;;;;;5026827;28;20396;-73
2022/04/21 08:40:31;;;;;;;4.55;2.65;;;14.50;73.50;;;;;;5024613;28;20120;-73
2022/04/21 08:43:00;;;;;;;5.57;2.42;;;14.70;74.40;;;;;;5024927;28;20067;-73
2022/04/21 08:45:26;;;;;;;3.35;2.40;;;14.90;78.00;;;;;;5030754;28;20041;-73
2022/04/21 08:47:58;;;;;;;4.50;2.60;;;14.90;75.00;;;;;;5028688;28;20048;-73
2022/04/21 08:50:24;;;;;;;2.83;2.30;;;15.10;70.30;;;;;;5024533;28;20147;-73
2022/04/21 08:52:49;;;;;;;3.00;2.53;;;15.20;69.90;;;;;;5026585;28;20587;-73
2022/04/21 08:55:16;;;;;;;5.28;2.70;;;15.30;74.20;;;;;;5029816;28;20390;-73
2022/04/21 08:57:42;;;;;;;3.17;2.50;;;15.40;70.10;;;;;;5030097;28;20407;-74
2022/04/21 09:00:08;;;;;;;5.30;2.58;;;15.60;70.10;;;;;;5004399;28;20043;-73
2022/04/21 09:02:40;;;;;;;4.78;2.40;;;15.60;66.60;;;;;;5027048;28;20088;-73
2022/04/21 09:05:07;;;;;;;3.65;2.38;;;15.60;66.40;;;;;;5025788;28;20088;-74
2022/04/21 09:07:42;;;;;;;5.00;2.58;;;15.60;65.00;;;;;;5029994;28;20038;-74
2022/04/21 09:10:13;;;;;;;3.80;2.40;;;15.70;63.20;;;;;;5026274;28;20072;-73
2022/04/21 09:12:50;;;;;;;7.78;2.58;;;15.90;64.70;;;;;;5028462;28;20041;-74
2022/04/21 09:15:18;;;;;;;3.85;2.58;;;16.00;64.80;;;;;;5025241;28;20033;-73
2022/04/21 09:17:46;;;;;;;3.08;2.13;;;16.10;64.30;;;;;;5031664;28;20033;-73
2022/04/21 09:20:15;;;;;;;4.20;2.20;;;16.20;62.20;;;;;;5028968;28;20152;-73
2022/04/21 09:22:52;;;;;;;4.78;2.53;;;16.40;63.00;;;;;;5030786;28;20047;-73
2022/04/21 09:25:20;;;;;;;3.80;2.20;;;16.40;62.50;;;;;;5029158;28;20045;-73
2022/04/21 09:27:49;;;;;;;3.17;2.20;;;16.40;61.30;;;;;;5006734;28;20041;-74
2022/04/21 09:30:16;;;;;;;4.70;2.10;;;16.50;65.80;;;;;;5030414;28;20506;-73
2022/04/21 09:32:53;;;;;;;2.70;2.22;;;16.70;64.40;;;;;;5028373;28;20065;-74
2022/04/21 09:35:19;;;;;;;6.13;2.60;;;16.80;63.20;;;;;;5028538;28;20041;-73
2022/04/21 09:37:50;;;;;;;4.95;2.20;;;16.90;62.60;;;;;;5031345;28;20488;-74
2022/04/21 09:40:21;;;;;;;2.85;2.05;;;17.00;59.00;;;;;;5027862;28;20033;-73
2022/04/21 09:42:57;;;;;;;4.07;2.17;;;17.10;59.60;;;;;;5030149;28;20120;-73
2022/04/21 09:48:23;;;;;;;5.55;2.25;;;17.40;57.30;;;;;;5027837;28;20048;-73
2022/04/21 09:50:53;;;;;;;4.60;2.15;;;17.60;59.70;;;;;;5026311;28;20045;-73
2022/04/21 09:53:25;;;;;;;3.92;2.40;;;17.70;56.30;;;;;;5025345;28;20231;-75
2022/04/21 09:56:05;;;;;;;8.95;2.50;;;17.80;55.50;;;;;;5023444;28;20045;-73
2022/04/21 09:58:36;;;;;;;4.30;2.47;;;17.80;56.70;;;;;;5029427;28;20042;-73
2022/04/21 10:01:03;;;;;;;6.93;2.67;;;17.70;56.70;;;;;;5010164;28;20048;-73
2022/04/21 10:03:33;;;;;;;7.15;2.50;;;17.80;56.70;;;;;;5021856;28;20029;-74
2022/04/21 10:06:00;;;;;;;4.32;2.50;;;17.90;56.90;;;;;;5022075;28;20033;-73
2022/04/21 10:08:28;;;;;;;6.90;2.40;;;17.90;55.80;;;;;;5028832;28;20068;-73
2022/04/21 10:10:55;;;;;;;4.38;2.50;;;18.10;54.60;;;;;;5030392;28;20163;-73
2022/04/21 10:13:21;;;;;;;4.03;2.20;;;18.20;55.40;;;;;;5030779;28;20049;-73
2022/04/21 10:15:48;;;;;;;6.40;2.25;;;18.20;54.00;;;;;;5032039;28;20048;-73
2022/04/21 10:18:16;;;;;;;3.88;1.92;;;18.30;52.50;;;;;;5008520;28;20037;-73
2022/04/21 10:20:44;;;;;;;7.82;2.22;;;18.30;52.60;;;;;;5057155;28;20152;-74
2022/04/21 10:23:15;;;;;;;5.20;2.00;;;18.30;52.30;;;;;;5027388;28;20048;-73
2022/04/21 10:25:42;;;;;;;4.47;2.30;;;18.40;52.00;;;;;;5029427;28;20057;-74
2022/04/21 10:28:40;;;;;;;4.03;1.88;;;18.30;52.30;;;;;;5021427;28;20051;-73
2022/04/21 10:31:26;;;;;;;4.45;2.00;;;18.40;52.30;;;;;;5022289;28;20029;-73
2022/04/21 10:34:00;;;;;;;2.80;1.80;;;18.60;51.00;;;;;;5028560;28;20110;-72
2022/04/21 10:37:04;;;;;;;3.75;2.20;;;18.70;52.20;;;;;;5040735;28;20120;-72
2022/04/21 10:39:30;;;;;;;4.90;2.10;;;18.90;51.70;;;;;;5020609;28;20088;-72
2022/04/21 10:42:18;;;;;;;4.57;2.20;;;19.00;50.20;;;;;;5023337;28;20073;-72
2022/04/21 10:44:49;;;;;;;4.45;1.90;;;19.20;49.70;;;;;;5024487;28;20045;-72
2022/04/21 10:47:30;;;;;;;5.47;2.40;;;19.30;49.50;;;;;;5020961;28;20052;-72
2022/04/21 10:50:00;;;;;;;3.53;2.05;;;19.50;50.10;;;;;;5020987;28;20361;-72
2022/04/21 10:57:48;;;;;;;3.25;1.80;;;19.60;46.60;;;;;;5023965;28;20046;-72
2022/04/21 11:00:34;;;;;;;5.38;2.00;;;19.60;48.50;;;;;;5024054;28;20081;-72
2022/04/21 11:03:05;;;;;;;2.00;1.80;;;19.70;48.90;;;;;;5023350;28;20137;-72
2022/04/21 11:05:35;;;;;;;5.00;1.90;;;19.60;46.60;;;;;;5021940;28;20045;-72
2022/04/21 11:08:04;;;;;;;3.63;2.17;;;19.70;47.40;;;;;;5025291;28;20040;-72
2022/04/21 11:10:38;;;;;;;4.53;2.05;;;19.70;46.20;;;;;;5024105;28;20136;-72
2022/04/21 11:13:12;;;;;;;3.33;2.22;;;19.80;47.00;;;;;;5024514;28;20107;-72
2022/04/21 11:15:44;;;;;;;3.15;2.13;;;19.90;48.90;;;;;;5040186;28;20037;-72
2022/04/21 11:18:30;;;;;;;4.68;2.17;;;20.10;50.00;;;;;;5007039;28;20203;-72
2022/04/21 11:21:26;;;;;;;2.33;2.13;;;20.30;47.20;;;;;;5035688;28;20071;-72
2022/04/21 11:23:51;;;;;;;5.88;2.40;;;20.20;46.20;;;;;;5020085;28;20041;-72
2022/04/21 11:26:24;;;;;;;5.03;2.40;;;20.10;46.80;;;;;;5022583;28;20095;-72
2022/04/21 11:28:51;;;;;;;5.85;2.45;;;20.20;48.20;;;;;;5019623;28;20120;-72
2022/04/21 11:31:20;;;;;;;3.50;2.35;;;20.40;49.70;;;;;;5018732;28;20045;-72
2022/04/21 11:33:45;;;;;;;3.65;2.17;;;20.40;45.80;;;;;;5019483;28;20041;-72
2022/04/21 11:36:13;;;;;;;5.53;2.55;;;20.50;48.00;;;;;;5004944;28;20041;-72
2022/04/21 11:38:43;;;;;;;5.75;2.33;;;20.50;45.60;;;;;;5020157;28;20057;-72
2022/04/21 11:41:10;;;;;;;5.03;2.30;;;20.60;46.40;;;;;;5023942;28;20049;-73
2022/04/21 11:43:44;;;;;;;2.63;2.33;;;20.70;47.40;;;;;;5022842;28;20034;-72
2022/04/21 11:46:12;;;;;;;7.85;2.55;;;20.70;47.30;;;;;;5011316;28;20102;-72
2022/04/21 11:48:40;;;;;;;9.63;2.50;;;20.70;47.50;;;;;;5025361;28;20037;-73
2022/04/21 11:51:07;;;;;;;12.05;2.70;;;20.70;46.70;;;;;;5023348;28;20442;-72
2022/04/21 11:53:36;;;;;;;5.07;2.20;;;20.60;45.90;;;;;;5027490;28;20069;-72
2022/04/21 11:56:03;;;;;;;9.02;2.33;;;20.50;46.50;;;;;;5027538;28;20396;-72
2022/04/21 11:58:34;;;;;;;3.13;2.22;;;20.30;47.00;;;;;;5028619;28;20045;-72
2022/04/21 12:06:47;;;;;;;8.20;2.42;;;20.10;47.10;;;;;;5055236;28;20044;-72
2022/04/21 12:09:25;;;;;;;5.43;2.20;;;20.10;47.20;;;;;;5027631;28;20427;-72
2022/04/21 12:11:58;;;;;;;5.95;2.17;;;20.00;46.50;;;;;;5027585;28;20114;-72
2022/04/21 12:14:24;;;;;;;3.60;2.08;;;20.10;48.70;;;;;;5009018;28;20476;-72
2022/04/21 12:16:53;;;;;;;3.35;2.30;;;20.30;47.80;;;;;;5025965;28;20559;-72
2022/04/21 12:19:43;;;;;;;6.10;2.45;;;20.40;48.20;;;;;;5026531;28;20044;-72
2022/04/21 12:22:13;;;;;;;5.95;2.63;;;20.60;47.50;;;;;;5051788;28;20140;-72
2022/04/21 12:24:47;;;;;;;3.65;2.58;;;20.80;49.70;;;;;;5020041;28;20285;-72
2022/04/21 12:27:19;;;;;;;6.75;2.92;;;20.90;46.80;;;;;;5019533;28;20038;-73
2022/04/21 12:29:58;;;;;;;2.92;2.42;;;21.10;48.50;;;;;;5022101;28;20037;-72
2022/04/21 12:32:29;;;;;;;5.88;2.55;;;21.30;47.70;;;;;;5023371;28;20441;-72
2022/04/21 12:35:06;;;;;;;3.37;2.63;;;21.40;47.70;;;;;;5029897;28;20399;-72
2022/04/21 12:37:35;;;;;;;3.70;2.65;;;21.50;47.90;;;;;;5024626;28;20471;-72
2022/04/21 12:40:07;;;;;;;4.43;2.63;;;21.50;45.80;;;;;;5027416;28;20099;-72
2022/04/21 12:42:33;;;;;;;3.70;2.57;;;21.70;45.70;;;;;;5012946;28;20045;-73
2022/04/21 12:44:59;;;;;;;4.10;2.50;;;21.80;45.00;;;;;;5029847;28;20393;-73
2022/04/21 12:47:25;;;;;;;3.33;2.67;;;21.90;44.50;;;;;;5028438;28;20107;-73
2022/04/21 12:50:12;;;;;;;4.82;2.55;;;22.10;45.60;;;;;;5027991;28;20029;-73
2022/04/21 12:52:45;;;;;;;2.90;2.70;;;22.20;46.70;;;;;;5030966;28;20037;-73
2022/04/21 12:55:22;;;;;;;5.53;2.78;;;22.20;45.30;;;;;;5007740;28;20888;-73
2022/04/21 12:58:09;;;;;;;4.90;3.03;;;22.10;44.40;;;;;;5030827;28;20439;-73
2022/04/21 13:00:38;;;;;;;6.60;2.78;;;22.00;46.20;;;;;;5025698;28;20045;-74
2022/04/21 13:03:05;;;;;;;4.05;2.80;;;21.90;45.20;;;;;;5025208;28;20059;-73
2022/04/21 13:05:31;;;;;;;8.50;2.60;;;21.70;46.80;;;;;;5028882;28;20052;-73
2022/04/21 13:07:57;;;;;;;6.13;2.78;;;21.80;46.30;;;;;;5021207;28;20038;-73
2022/04/21 13:10:23;;;;;;;4.35;2.40;;;21.80;44.90;;;;;;5030460;28;20033;-73
2022/04/21 13:12:49;;;;;;;7.10;2.58;;;21.90;43.60;;;;;;5030433;28;20049;-73
2022/04/21 13:15:15;;;;;;;7.22;2.65;;;21.90;42.50;;;;;;5030649;28;20056;-73
2022/04/21 13:17:41;;;;;;;4.10;2.90;;;21.90;43.50;;;;;;5025479;28;20044;-73
2022/04/21 13:20:08;;;;;;;9.70;2.50;;;21.70;44.10;;;;;;5026879;28;20559;-73
2022/04/21 13:22:34;;;;;;;3.70;2.70;;;21.60;44.60;;;;;;5015319;28;20044;-73
2022/04/21 13:25:00;;;;;;;4.05;2.42;;;21.50;45.40;;;;;;5028009;28;20046;-73
2022/04/21 13:27:27;;;;;;;3.67;2.45;;;21.40;44.30;;;;;;5002944;28;20373;-73
2022/04/21 13:29:55;;;;;;;7.13;2.63;;;21.60;44.40;;;;;;5013100;28;20037;-73
2022/04/21 13:35:06;;;;;;;5.13;2.80;;;21.90;45.40;;;;;;5025601;28;20056;-73
2022/04/21 13:37:32;;;;;;;6.70;2.80;;;22.10;45.50;;;;;;5029971;28;20148;-73
2022/04/21 13:39:58;;;;;;;5.32;2.75;;;22.20;44.50;;;;;;5021572;28;20231;-73
2022/04/21 13:42:23;;;;;;;4.18;3.00;;;22.20;44.80;;;;;;5026704;28;20035;-73
2022/04/21 13:44:51;;;;;;;6.22;2.70;;;22.10;43.80;;;;;;5031069;28;20049;-73
2022/04/21 13:47:17;;;;;;;9.73;3.30;;;22.00;45.00;;;;;;5012404;28;20033;-73
2022/04/21 13:49:46;;;;;;;5.22;3.05;;;21.80;46.10;;;;;;5030312;28;20045;-73
2022/04/21 13:52:12;;;;;;;9.68;3.47;;;21.50;45.90;;;;;;5021796;28;20029;-73